sensor_id;sensor_type;location;lat;lon;timestamp;pressure;altitude;pressure_sealevel;temperature;humidity
27840;BME280;15207;42.182;24.308;2023-12-14T00:01:13;98494.97;;;2.42;100.00
27840;BME280;15207;42.182;24.308;2023-12-14T00:03:39;98485.41;;;2.55;100.00
27840;BME280;15207;42.182;24.308;2023-12-14T00:06:07;98482.25;;;2.48;100.00
27840;BME280;15207;42.182;24.308;2023-12-14T00:08:33;98497.47;;;2.45;100.00
27840;BME280;15207;42.182;24.308;2023-12-14T00:11:02;98500.59;;;2.51;100.00
27840;BME280;15207;42.182;24.308;2023-12-14T00:13:28;98498.41;;;2.44;100.00
27840;BME280;15207;42.182;24.308;2023-12-14T00:15:53;98518.78;;;2.42;100.00
27840;BME280;15207;42.182;24.308;2023-12-14T00:18:18;98499.09;;;2.31;100.00
27840;BME280;15207;42.182;24.308;2023-12-14T00:20:44;98496.03;;;2.23;100.00
27840;BME280;15207;42.182;24.308;2023-12-14T00:23:09;98490.69;;;2.24;100.00
27840;BME280;15207;42.182;24.308;2023-12-14T00:25:34;98501.75;;;2.31;100.00
27840;BME280;15207;42.182;24.308;2023-12-14T00:28:00;98502.16;;;2.40;100.00
27840;BME280;15207;42.182;24.308;2023-12-14T00:30:25;98509.16;;;2.24;100.00
27840;BME280;15207;42.182;24.308;2023-12-14T00:32:50;98526.66;;;2.27;100.00
27840;BME280;15207;42.182;24.308;2023-12-14T00:35:16;98528.75;;;2.36;100.00
27840;BME280;15207;42.182;24.308;2023-12-14T00:37:41;98518.41;;;2.48;100.00
27840;BME280;15207;42.182;24.308;2023-12-14T00:40:07;98514.94;;;2.47;100.00
27840;BME280;15207;42.182;24.308;2023-12-14T00:42:33;98499.31;;;2.43;100.00
27840;BME280;15207;42.182;24.308;2023-12-14T00:44:58;98500.81;;;2.32;100.00
27840;BME280;15207;42.182;24.308;2023-12-14T00:47:23;98495.06;;;2.40;100.00
27840;BME280;15207;42.182;24.308;2023-12-14T00:49:49;98503.00;;;2.40;100.00
27840;BME280;15207;42.182;24.308;2023-12-14T00:52:14;98507.56;;;2.22;100.00
27840;BME280;15207;42.182;24.308;2023-12-14T00:54:39;98508.72;;;2.32;100.00
27840;BME280;15207;42.182;24.308;2023-12-14T00:57:05;98498.97;;;2.18;100.00
27840;BME280;15207;42.182;24.308;2023-12-14T00:59:30;98498.81;;;2.05;100.00
27840;BME280;15207;42.182;24.308;2023-12-14T01:01:55;98498.38;;;1.97;100.00
27840;BME280;15207;42.182;24.308;2023-12-14T01:04:21;98489.84;;;2.24;100.00
27840;BME280;15207;42.182;24.308;2023-12-14T01:06:46;98483.97;;;2.19;100.00
27840;BME280;15207;42.182;24.308;2023-12-14T01:09:11;98492.72;;;2.35;100.00
27840;BME280;15207;42.182;24.308;2023-12-14T01:11:37;98489.59;;;2.13;100.00
27840;BME280;15207;42.182;24.308;2023-12-14T01:14:02;98486.44;;;2.06;100.00
27840;BME280;15207;42.182;24.308;2023-12-14T01:16:29;98497.13;;;2.04;100.00
27840;BME280;15207;42.182;24.308;2023-12-14T01:18:54;98479.97;;;2.11;100.00
27840;BME280;15207;42.182;24.308;2023-12-14T01:21:20;98495.16;;;2.08;100.00
27840;BME280;15207;42.182;24.308;2023-12-14T01:23:45;98495.75;;;1.97;100.00
27840;BME280;15207;42.182;24.308;2023-12-14T01:26:10;98492.59;;;1.90;100.00
27840;BME280;15207;42.182;24.308;2023-12-14T01:28:36;98469.03;;;1.87;100.00
27840;BME280;15207;42.182;24.308;2023-12-14T01:31:01;98488.75;;;2.12;100.00
27840;BME280;15207;42.182;24.308;2023-12-14T01:33:26;98488.75;;;2.12;100.00
27840;BME280;15207;42.182;24.308;2023-12-14T01:35:52;98481.28;;;2.04;100.00
27840;BME280;15207;42.182;24.308;2023-12-14T01:38:17;98488.91;;;2.25;100.00
27840;BME280;15207;42.182;24.308;2023-12-14T01:40:42;98476.94;;;2.34;100.00
27840;BME280;15207;42.182;24.308;2023-12-14T01:43:11;98468.91;;;2.35;100.00
27840;BME280;15207;42.182;24.308;2023-12-14T01:45:37;98480.88;;;2.27;100.00
27840;BME280;15207;42.182;24.308;2023-12-14T01:48:02;98478.28;;;2.10;100.00
27840;BME280;15207;42.182;24.308;2023-12-14T01:50:28;98472.63;;;2.17;100.00
27840;BME280;15207;42.182;24.308;2023-12-14T01:52:53;98483.97;;;2.19;100.00
27840;BME280;15207;42.182;24.308;2023-12-14T01:55:18;98481.59;;;2.14;100.00
27840;BME280;15207;42.182;24.308;2023-12-14T01:57:44;98476.44;;;2.27;100.00
27840;BME280;15207;42.182;24.308;2023-12-14T02:00:19;98476.84;;;2.35;100.00
27840;BME280;15207;42.182;24.308;2023-12-14T02:02:47;98453.47;;;2.13;100.00
27840;BME280;15207;42.182;24.308;2023-12-14T02:05:13;98494.81;;;1.98;100.00
27840;BME280;15207;42.182;24.308;2023-12-14T02:07:38;98497.88;;;2.06;100.00
27840;BME280;15207;42.182;24.308;2023-12-14T02:10:03;98471.00;;;2.14;100.00
27840;BME280;15207;42.182;24.308;2023-12-14T02:12:29;98471.69;;;2.18;100.00
27840;BME280;15207;42.182;24.308;2023-12-14T02:14:56;98489.53;;;2.45;100.00
27840;BME280;15207;42.182;24.308;2023-12-14T02:17:21;98486.34;;;2.23;100.00
27840;BME280;15207;42.182;24.308;2023-12-14T02:19:47;98490.00;;;2.21;100.00
27840;BME280;15207;42.182;24.308;2023-12-14T02:22:12;98476.84;;;2.35;100.00
27840;BME280;15207;42.182;24.308;2023-12-14T02:24:37;98485.38;;;2.24;100.00
27840;BME280;15207;42.182;24.308;2023-12-14T02:27:03;98471.22;;;2.11;100.00
27840;BME280;15207;42.182;24.308;2023-12-14T02:29:28;98476.94;;;2.34;100.00
27840;BME280;15207;42.182;24.308;2023-12-14T02:31:53;98485.38;;;2.24;100.00
27840;BME280;15207;42.182;24.308;2023-12-14T02:34:19;98493.59;;;2.20;100.00
27840;BME280;15207;42.182;24.308;2023-12-14T02:36:45;98479.28;;;2.08;100.00
27840;BME280;15207;42.182;24.308;2023-12-14T02:39:11;98489.78;;;1.93;100.00
27840;BME280;15207;42.182;24.308;2023-12-14T02:41:36;98479.81;;;1.82;100.00
27840;BME280;15207;42.182;24.308;2023-12-14T02:44:02;98474.25;;;2.03;100.00
27840;BME280;15207;42.182;24.308;2023-12-14T02:46:27;98475.47;;;1.97;100.00
27840;BME280;15207;42.182;24.308;2023-12-14T02:48:52;98473.50;;;2.01;100.00
27840;BME280;15207;42.182;24.308;2023-12-14T02:51:18;98482.94;;;2.21;100.00
27840;BME280;15207;42.182;24.308;2023-12-14T02:53:43;98472.75;;;1.99;100.00
27840;BME280;15207;42.182;24.308;2023-12-14T02:56:09;98462.03;;;2.33;100.00
27840;BME280;15207;42.182;24.308;2023-12-14T02:58:36;98472.69;;;2.31;100.00
27840;BME280;15207;42.182;24.308;2023-12-14T03:01:01;98461.59;;;2.24;100.00
27840;BME280;15207;42.182;24.308;2023-12-14T03:03:26;98477.53;;;2.23;100.00
27840;BME280;15207;42.182;24.308;2023-12-14T03:05:54;98467.03;;;2.37;100.00
27840;BME280;15207;42.182;24.308;2023-12-14T03:08:19;98476.81;;;2.51;100.00
27840;BME280;15207;42.182;24.308;2023-12-14T03:10:44;98478.75;;;2.48;100.00
27840;BME280;15207;42.182;24.308;2023-12-14T03:13:10;98459.63;;;2.14;100.00
27840;BME280;15207;42.182;24.308;2023-12-14T03:15:35;98453.31;;;2.16;100.00
27840;BME280;15207;42.182;24.308;2023-12-14T03:18:00;98458.59;;;2.16;100.00
27840;BME280;15207;42.182;24.308;2023-12-14T03:20:25;98464.50;;;1.89;100.00
27840;BME280;15207;42.182;24.308;2023-12-14T03:22:51;98459.22;;;1.89;100.00
27840;BME280;15207;42.182;24.308;2023-12-14T03:25:16;98458.47;;;1.71;100.00
27840;BME280;15207;42.182;24.308;2023-12-14T03:27:41;98449.31;;;1.93;100.00
27840;BME280;15207;42.182;24.308;2023-12-14T03:30:07;98451.03;;;1.78;100.00
27840;BME280;15207;42.182;24.308;2023-12-14T03:32:35;98450.41;;;2.05;100.00
27840;BME280;15207;42.182;24.308;2023-12-14T03:35:00;98454.19;;;1.84;100.00
27840;BME280;15207;42.182;24.308;2023-12-14T03:37:25;98455.13;;;1.83;100.00
27840;BME280;15207;42.182;24.308;2023-12-14T03:39:51;98454.88;;;1.88;100.00
27840;BME280;15207;42.182;24.308;2023-12-14T03:42:16;98452.22;;;1.88;100.00
27840;BME280;15207;42.182;24.308;2023-12-14T03:44:42;98462.19;;;1.99;100.00
27840;BME280;15207;42.182;24.308;2023-12-14T03:47:07;98458.84;;;1.95;100.00
27840;BME280;15207;42.182;24.308;2023-12-14T03:49:37;98454.91;;;2.19;100.00
27840;BME280;15207;42.182;24.308;2023-12-14T03:52:03;98441.06;;;1.83;100.00
27840;BME280;15207;42.182;24.308;2023-12-14T03:54:29;98451.72;;;1.65;100.00
27840;BME280;15207;42.182;24.308;2023-12-14T03:56:54;98449.06;;;1.81;100.00
27840;BME280;15207;42.182;24.308;2023-12-14T03:59:20;98456.69;;;1.71;100.00
27840;BME280;15207;42.182;24.308;2023-12-14T04:01:45;98462.81;;;1.56;100.00
27840;BME280;15207;42.182;24.308;2023-12-14T04:04:10;98473.28;;;1.57;100.00
27840;BME280;15207;42.182;24.308;2023-12-14T04:06:36;98453.69;;;1.62;100.00
27840;BME280;15207;42.182;24.308;2023-12-14T04:09:01;98451.03;;;1.62;100.00
27840;BME280;15207;42.182;24.308;2023-12-14T04:11:27;98468.34;;;1.51;100.00
27840;BME280;15207;42.182;24.308;2023-12-14T04:13:52;98474.13;;;1.74;100.00
27840;BME280;15207;42.182;24.308;2023-12-14T04:16:22;98474.28;;;1.55;100.00
27840;BME280;15207;42.182;24.308;2023-12-14T04:18:48;98473.63;;;1.67;100.00
27840;BME280;15207;42.182;24.308;2023-12-14T04:21:13;98472.25;;;1.92;100.00
27840;BME280;15207;42.182;24.308;2023-12-14T04:23:39;98452.31;;;1.70;100.00
27840;BME280;15207;42.182;24.308;2023-12-14T04:26:04;98441.16;;;1.65;100.00
27840;BME280;15207;42.182;24.308;2023-12-14T04:28:30;98463.66;;;1.56;100.00
27840;BME280;15207;42.182;24.308;2023-12-14T04:30:55;98448.31;;;1.79;100.00
27840;BME280;15207;42.182;24.308;2023-12-14T04:33:21;98464.31;;;1.76;100.00
27840;BME280;15207;42.182;24.308;2023-12-14T04:35:46;98457.34;;;1.75;100.00
27840;BME280;15207;42.182;24.308;2023-12-14T04:38:11;98455.66;;;1.74;100.00
27840;BME280;15207;42.182;24.308;2023-12-14T04:40:37;98444.00;;;1.62;100.00
27840;BME280;15207;42.182;24.308;2023-12-14T04:43:02;98435.88;;;1.81;100.00
27840;BME280;15207;42.182;24.308;2023-12-14T04:45:28;98435.81;;;1.67;100.00
27840;BME280;15207;42.182;24.308;2023-12-14T04:47:53;98445.41;;;1.84;100.00
27840;BME280;15207;42.182;24.308;2023-12-14T04:50:18;98429.72;;;1.97;100.00
27840;BME280;15207;42.182;24.308;2023-12-14T04:52:44;98429.22;;;1.90;100.00
27840;BME280;15207;42.182;24.308;2023-12-14T04:55:09;98429.34;;;1.73;100.00
27840;BME280;15207;42.182;24.308;2023-12-14T04:57:35;98447.38;;;1.64;100.00
27840;BME280;15207;42.182;24.308;2023-12-14T05:00:01;98455.81;;;1.71;100.00
27840;BME280;15207;42.182;24.308;2023-12-14T05:02:27;98439.69;;;1.76;100.00
27840;BME280;15207;42.182;24.308;2023-12-14T05:04:53;98445.34;;;1.69;100.00
27840;BME280;15207;42.182;24.308;2023-12-14T05:07:18;98453.69;;;1.78;100.00
27840;BME280;15207;42.182;24.308;2023-12-14T05:09:43;98454.31;;;1.51;100.00
27840;BME280;15207;42.182;24.308;2023-12-14T05:12:09;98443.81;;;1.33;100.00
27840;BME280;15207;42.182;24.308;2023-12-14T05:14:34;98453.06;;;1.40;100.00
27840;BME280;15207;42.182;24.308;2023-12-14T05:17:00;98463.50;;;1.60;100.00
27840;BME280;15207;42.182;24.308;2023-12-14T05:19:25;98460.50;;;1.50;100.00
27840;BME280;15207;42.182;24.308;2023-12-14T05:21:50;98445.84;;;1.28;100.00
27840;BME280;15207;42.182;24.308;2023-12-14T05:24:16;98440.81;;;1.39;100.00
27840;BME280;15207;42.182;24.308;2023-12-14T05:26:41;98447.66;;;1.60;100.00
27840;BME280;15207;42.182;24.308;2023-12-14T05:29:06;98457.88;;;1.66;100.00
27840;BME280;15207;42.182;24.308;2023-12-14T05:31:32;98465.16;;;1.44;100.00
27840;BME280;15207;42.182;24.308;2023-12-14T05:33:58;98465.53;;;1.54;100.00
27840;BME280;15207;42.182;24.308;2023-12-14T05:36:23;98469.94;;;1.38;100.00
27840;BME280;15207;42.182;24.308;2023-12-14T05:38:48;98470.78;;;1.38;100.00
27840;BME280;15207;42.182;24.308;2023-12-14T05:41:14;98481.00;;;1.28;100.00
27840;BME280;15207;42.182;24.308;2023-12-14T05:43:40;98471.25;;;1.47;100.00
27840;BME280;15207;42.182;24.308;2023-12-14T05:46:06;98479.22;;;1.29;100.00
27840;BME280;15207;42.182;24.308;2023-12-14T05:48:31;98470.28;;;1.48;100.00
27840;BME280;15207;42.182;24.308;2023-12-14T05:50:56;98494.19;;;1.44;100.00
27840;BME280;15207;42.182;24.308;2023-12-14T05:53:22;98488.41;;;1.38;100.00
27840;BME280;15207;42.182;24.308;2023-12-14T05:55:47;98481.28;;;1.40;100.00
27840;BME280;15207;42.182;24.308;2023-12-14T05:58:13;98469.34;;;1.49;100.00
27840;BME280;15207;42.182;24.308;2023-12-14T06:00:38;98474.03;;;1.43;100.00
27840;BME280;15207;42.182;24.308;2023-12-14T06:03:05;98474.03;;;1.43;100.00
27840;BME280;15207;42.182;24.308;2023-12-14T06:05:30;98479.28;;;1.27;100.00
27840;BME280;15207;42.182;24.308;2023-12-14T06:07:56;98487.91;;;1.47;100.00
27840;BME280;15207;42.182;24.308;2023-12-14T06:10:21;98479.16;;;1.79;100.00
27840;BME280;15207;42.182;24.308;2023-12-14T06:12:47;98494.03;;;1.80;100.00
27840;BME280;15207;42.182;24.308;2023-12-14T06:15:13;98478.13;;;1.81;100.00
27840;BME280;15207;42.182;24.308;2023-12-14T06:17:39;98491.84;;;1.72;100.00
27840;BME280;15207;42.182;24.308;2023-12-14T06:20:06;98473.28;;;1.74;100.00
27840;BME280;15207;42.182;24.308;2023-12-14T06:22:39;98476.59;;;1.77;100.00
27840;BME280;15207;42.182;24.308;2023-12-14T06:25:05;98488.16;;;1.75;100.00
27840;BME280;15207;42.182;24.308;2023-12-14T06:27:30;98485.00;;;1.68;100.00
27840;BME280;15207;42.182;24.308;2023-12-14T06:29:55;98480.75;;;1.65;100.00
27840;BME280;15207;42.182;24.308;2023-12-14T06:32:21;98487.94;;;1.79;100.00
27840;BME280;15207;42.182;24.308;2023-12-14T06:34:47;98495.78;;;1.65;100.00
27840;BME280;15207;42.182;24.308;2023-12-14T06:37:12;98501.47;;;2.05;100.00
27840;BME280;15207;42.182;24.308;2023-12-14T06:39:37;98501.09;;;1.95;100.00
27840;BME280;15207;42.182;24.308;2023-12-14T06:42:03;98504.88;;;1.75;100.00
27840;BME280;15207;42.182;24.308;2023-12-14T06:44:29;98484.94;;;1.85;100.00
27840;BME280;15207;42.182;24.308;2023-12-14T06:46:55;98482.81;;;2.08;100.00
27840;BME280;15207;42.182;24.308;2023-12-14T06:49:24;98474.72;;;2.42;100.00
27840;BME280;15207;42.182;24.308;2023-12-14T06:51:50;98490.94;;;2.20;100.00
27840;BME280;15207;42.182;24.308;2023-12-14T06:54:15;98483.88;;;2.51;100.00
27840;BME280;15207;42.182;24.308;2023-12-14T06:56:40;98465.09;;;2.56;100.00
27840;BME280;15207;42.182;24.308;2023-12-14T06:59:06;98480.06;;;2.41;100.00
27840;BME280;15207;42.182;24.308;2023-12-14T07:01:31;98485.56;;;2.52;100.00
27840;BME280;15207;42.182;24.308;2023-12-14T07:03:57;98490.78;;;2.54;100.00
27840;BME280;15207;42.182;24.308;2023-12-14T07:06:22;98489.66;;;2.58;100.00
27840;BME280;15207;42.182;24.308;2023-12-14T07:08:47;98493.59;;;2.50;100.00
27840;BME280;15207;42.182;24.308;2023-12-14T07:11:13;98500.69;;;2.50;100.00
27840;BME280;15207;42.182;24.308;2023-12-14T07:13:39;98492.03;;;2.62;100.00
27840;BME280;15207;42.182;24.308;2023-12-14T07:16:06;98489.16;;;2.51;100.00
27840;BME280;15207;42.182;24.308;2023-12-14T07:18:42;98477.50;;;2.70;100.00
27840;BME280;15207;42.182;24.308;2023-12-14T07:21:08;98484.22;;;2.75;100.00
27840;BME280;15207;42.182;24.308;2023-12-14T07:23:35;98492.00;;;2.93;100.00
27840;BME280;15207;42.182;24.308;2023-12-14T07:26:01;98491.41;;;2.88;100.00
27840;BME280;15207;42.182;24.308;2023-12-14T07:28:26;98508.25;;;3.01;100.00
27840;BME280;15207;42.182;24.308;2023-12-14T07:30:51;98501.25;;;3.29;100.00
27840;BME280;15207;42.182;24.308;2023-12-14T07:33:17;98507.13;;;3.35;100.00
27840;BME280;15207;42.182;24.308;2023-12-14T07:35:42;98524.44;;;3.40;100.00
27840;BME280;15207;42.182;24.308;2023-12-14T07:38:09;98504.28;;;3.38;100.00
27840;BME280;15207;42.182;24.308;2023-12-14T07:40:34;98503.91;;;3.44;100.00
27840;BME280;15207;42.182;24.308;2023-12-14T07:43:00;98500.50;;;3.56;100.00
27840;BME280;15207;42.182;24.308;2023-12-14T07:45:25;98498.56;;;3.73;100.00
27840;BME280;15207;42.182;24.308;2023-12-14T07:47:51;98513.13;;;3.80;100.00
27840;BME280;15207;42.182;24.308;2023-12-14T07:50:16;98518.84;;;4.02;100.00
27840;BME280;15207;42.182;24.308;2023-12-14T07:52:42;98497.75;;;4.28;100.00
27840;BME280;15207;42.182;24.308;2023-12-14T07:55:08;98502.25;;;4.13;100.00
27840;BME280;15207;42.182;24.308;2023-12-14T07:57:34;98482.44;;;4.18;100.00
27840;BME280;15207;42.182;24.308;2023-12-14T08:00:00;98492.91;;;4.07;100.00
27840;BME280;15207;42.182;24.308;2023-12-14T08:02:25;98483.91;;;4.09;100.00
27840;BME280;15207;42.182;24.308;2023-12-14T08:04:50;98482.66;;;4.15;100.00
27840;BME280;15207;42.182;24.308;2023-12-14T08:07:15;98487.50;;;4.08;100.00
27840;BME280;15207;42.182;24.308;2023-12-14T08:09:41;98510.94;;;4.42;100.00
27840;BME280;15207;42.182;24.308;2023-12-14T08:12:07;98504.59;;;4.45;100.00
27840;BME280;15207;42.182;24.308;2023-12-14T08:14:33;98521.63;;;4.41;100.00
27840;BME280;15207;42.182;24.308;2023-12-14T08:16:59;98516.00;;;4.73;100.00
27840;BME280;15207;42.182;24.308;2023-12-14T08:19:25;98498.81;;;4.79;100.00
27840;BME280;15207;42.182;24.308;2023-12-14T08:21:50;98511.44;;;4.75;100.00
27840;BME280;15207;42.182;24.308;2023-12-14T08:24:16;98510.81;;;4.97;100.00
27840;BME280;15207;42.182;24.308;2023-12-14T08:26:41;98518.88;;;5.09;100.00
27840;BME280;15207;42.182;24.308;2023-12-14T08:29:06;98518.97;;;4.94;100.00
27840;BME280;15207;42.182;24.308;2023-12-14T08:31:32;98528.00;;;4.92;100.00
27840;BME280;15207;42.182;24.308;2023-12-14T08:33:57;98521.88;;;5.17;100.00
27840;BME280;15207;42.182;24.308;2023-12-14T08:36:22;98508.56;;;5.43;100.00
27840;BME280;15207;42.182;24.308;2023-12-14T08:38:48;98529.47;;;5.74;100.00
27840;BME280;15207;42.182;24.308;2023-12-14T08:41:14;98518.09;;;5.72;100.00
27840;BME280;15207;42.182;24.308;2023-12-14T08:43:40;98513.28;;;6.03;100.00
27840;BME280;15207;42.182;24.308;2023-12-14T08:46:05;98512.06;;;5.94;100.00
27840;BME280;15207;42.182;24.308;2023-12-14T08:48:30;98516.00;;;6.01;100.00
27840;BME280;15207;42.182;24.308;2023-12-14T08:50:56;98508.13;;;6.13;100.00
27840;BME280;15207;42.182;24.308;2023-12-14T08:53:21;98503.75;;;6.36;100.00
27840;BME280;15207;42.182;24.308;2023-12-14T08:55:47;98484.91;;;6.15;100.00
27840;BME280;15207;42.182;24.308;2023-12-14T08:58:12;98481.00;;;6.32;100.00
27840;BME280;15207;42.182;24.308;2023-12-14T09:00:37;98485.16;;;6.47;100.00
27840;BME280;15207;42.182;24.308;2023-12-14T09:03:03;98496.41;;;6.75;100.00
27840;BME280;15207;42.182;24.308;2023-12-14T09:05:29;98482.66;;;7.05;100.00
27840;BME280;15207;42.182;24.308;2023-12-14T09:07:54;98486.03;;;6.95;100.00
27840;BME280;15207;42.182;24.308;2023-12-14T09:10:22;98476.28;;;7.41;100.00
27840;BME280;15207;42.182;24.308;2023-12-14T09:12:47;98471.69;;;7.32;100.00
27840;BME280;15207;42.182;24.308;2023-12-14T09:15:13;98476.53;;;7.16;100.00
27840;BME280;15207;42.182;24.308;2023-12-14T09:17:41;98478.44;;;7.59;98.93
27840;BME280;15207;42.182;24.308;2023-12-14T09:20:08;98470.44;;;7.59;99.96
27840;BME280;15207;42.182;24.308;2023-12-14T09:22:34;98473.53;;;7.99;97.70
27840;BME280;15207;42.182;24.308;2023-12-14T09:24:59;98468.13;;;8.22;96.41
27840;BME280;15207;42.182;24.308;2023-12-14T09:27:24;98450.38;;;8.65;93.85
27840;BME280;15207;42.182;24.308;2023-12-14T09:29:50;98444.28;;;9.05;91.08
27840;BME280;15207;42.182;24.308;2023-12-14T09:32:15;98438.84;;;9.07;92.26
27840;BME280;15207;42.182;24.308;2023-12-14T09:34:42;98446.66;;;9.30;89.75
27840;BME280;15207;42.182;24.308;2023-12-14T09:37:08;98442.97;;;9.21;89.30
27840;BME280;15207;42.182;24.308;2023-12-14T09:39:33;98450.16;;;9.61;87.79
27840;BME280;15207;42.182;24.308;2023-12-14T09:42:07;98445.78;;;9.60;89.32
27840;BME280;15207;42.182;24.308;2023-12-14T09:44:34;98445.44;;;9.95;86.08
27840;BME280;15207;42.182;24.308;2023-12-14T09:47:01;98449.19;;;9.72;85.79
27840;BME280;15207;42.182;24.308;2023-12-14T09:49:29;98428.06;;;9.69;88.53
27840;BME280;15207;42.182;24.308;2023-12-14T09:51:58;98438.50;;;9.72;87.33
27840;BME280;15207;42.182;24.308;2023-12-14T09:54:25;98434.81;;;9.63;87.49
27840;BME280;15207;42.182;24.308;2023-12-14T09:56:51;98415.03;;;9.96;87.29
27840;BME280;15207;42.182;24.308;2023-12-14T09:59:18;98420.69;;;10.42;85.43
27840;BME280;15207;42.182;24.308;2023-12-14T10:01:44;98418.28;;;10.49;85.27
27840;BME280;15207;42.182;24.308;2023-12-14T10:04:11;98409.41;;;10.68;84.15
27840;BME280;15207;42.182;24.308;2023-12-14T10:06:37;98396.16;;;10.66;82.94
27840;BME280;15207;42.182;24.308;2023-12-14T10:09:03;98407.16;;;10.43;82.59
27840;BME280;15207;42.182;24.308;2023-12-14T10:11:29;98410.25;;;10.39;80.73
27840;BME280;15207;42.182;24.308;2023-12-14T10:13:55;98397.28;;;10.64;81.94
27840;BME280;15207;42.182;24.308;2023-12-14T10:16:32;98396.66;;;10.90;81.37
27840;BME280;15207;42.182;24.308;2023-12-14T10:18:58;98399.25;;;11.09;81.00
27840;BME280;15207;42.182;24.308;2023-12-14T10:21:26;98397.25;;;10.83;81.17
27840;BME280;15207;42.182;24.308;2023-12-14T10:23:52;98385.47;;;11.04;82.26
27840;BME280;15207;42.182;24.308;2023-12-14T10:26:22;98388.69;;;11.08;80.95
27840;BME280;15207;42.182;24.308;2023-12-14T10:28:49;98381.53;;;10.98;80.20
27840;BME280;15207;42.182;24.308;2023-12-14T10:31:15;98392.56;;;10.85;80.41
27840;BME280;15207;42.182;24.308;2023-12-14T10:33:40;98399.31;;;10.90;81.00
27840;BME280;15207;42.182;24.308;2023-12-14T10:36:06;98394.91;;;11.08;80.04
27840;BME280;15207;42.182;24.308;2023-12-14T10:38:32;98408.25;;;11.18;80.42
27840;BME280;15207;42.182;24.308;2023-12-14T10:40:59;98419.69;;;11.20;79.23
27840;BME280;15207;42.182;24.308;2023-12-14T10:43:25;98398.06;;;11.22;77.72
27840;BME280;15207;42.182;24.308;2023-12-14T10:45:51;98382.53;;;10.97;78.39
27840;BME280;15207;42.182;24.308;2023-12-14T10:48:20;98400.84;;;11.02;78.77
27840;BME280;15207;42.182;24.308;2023-12-14T10:50:46;98399.19;;;10.81;80.75
27840;BME280;15207;42.182;24.308;2023-12-14T10:53:13;98404.31;;;10.75;80.81
27840;BME280;15207;42.182;24.308;2023-12-14T10:55:45;98403.06;;;10.69;81.91
27840;BME280;15207;42.182;24.308;2023-12-14T10:58:12;98396.28;;;10.65;82.55
27840;BME280;15207;42.182;24.308;2023-12-14T11:00:38;98387.66;;;10.81;82.71
27840;BME280;15207;42.182;24.308;2023-12-14T11:03:05;98390.66;;;10.68;82.25
27840;BME280;15207;42.182;24.308;2023-12-14T11:05:33;98392.88;;;10.82;81.71
27840;BME280;15207;42.182;24.308;2023-12-14T11:08:02;98382.25;;;11.01;81.67
27840;BME280;15207;42.182;24.308;2023-12-14T11:10:42;98378.44;;;10.93;83.46
27840;BME280;15207;42.182;24.308;2023-12-14T11:13:13;98391.28;;;11.00;82.62
27840;BME280;15207;42.182;24.308;2023-12-14T11:15:48;98386.16;;;11.06;82.84
27840;BME280;15207;42.182;24.308;2023-12-14T11:23:11;98392.09;;;11.10;82.25
27840;BME280;15207;42.182;24.308;2023-12-14T11:25:43;98380.78;;;11.06;81.98
27840;BME280;15207;42.182;24.308;2023-12-14T11:28:09;98376.69;;;11.12;82.17
27840;BME280;15207;42.182;24.308;2023-12-14T11:30:35;98378.50;;;11.21;81.56
27840;BME280;15207;42.182;24.308;2023-12-14T11:33:01;98377.09;;;11.17;82.31
27840;BME280;15207;42.182;24.308;2023-12-14T11:35:26;98382.97;;;11.31;80.79
27840;BME280;15207;42.182;24.308;2023-12-14T11:37:52;98373.38;;;11.28;81.79
27840;BME280;15207;42.182;24.308;2023-12-14T11:40:18;98375.41;;;11.16;84.29
27840;BME280;15207;42.182;24.308;2023-12-14T11:42:57;98387.81;;;11.17;83.63
27840;BME280;15207;42.182;24.308;2023-12-14T11:45:23;98386.78;;;11.28;83.20
27840;BME280;15207;42.182;24.308;2023-12-14T11:47:48;98384.44;;;11.15;83.46
27840;BME280;15207;42.182;24.308;2023-12-14T11:50:14;98383.47;;;11.06;83.74
27840;BME280;15207;42.182;24.308;2023-12-14T11:52:41;98380.63;;;11.18;83.85
27840;BME280;15207;42.182;24.308;2023-12-14T11:55:12;98379.97;;;11.06;84.50
27840;BME280;15207;42.182;24.308;2023-12-14T11:57:39;98361.34;;;11.04;85.05
27840;BME280;15207;42.182;24.308;2023-12-14T12:00:06;98368.06;;;11.18;84.27
27840;BME280;15207;42.182;24.308;2023-12-14T12:02:32;98384.72;;;11.12;84.58
27840;BME280;15207;42.182;24.308;2023-12-14T12:04:57;98370.66;;;11.10;85.56
27840;BME280;15207;42.182;24.308;2023-12-14T12:07:23;98369.56;;;11.31;84.81
27840;BME280;15207;42.182;24.308;2023-12-14T12:09:48;98376.50;;;11.23;84.77
27840;BME280;15207;42.182;24.308;2023-12-14T12:12:14;98376.16;;;11.08;86.70
27840;BME280;15207;42.182;24.308;2023-12-14T12:14:41;98376.34;;;10.97;88.05
27840;BME280;15207;42.182;24.308;2023-12-14T12:17:08;98363.63;;;10.99;87.59
27840;BME280;15207;42.182;24.308;2023-12-14T12:19:35;98365.84;;;11.04;86.61
27840;BME280;15207;42.182;24.308;2023-12-14T12:22:00;98359.66;;;11.03;87.41
27840;BME280;15207;42.182;24.308;2023-12-14T12:24:26;98365.19;;;11.02;86.96
27840;BME280;15207;42.182;24.308;2023-12-14T12:26:52;98364.50;;;11.00;87.79
27840;BME280;15207;42.182;24.308;2023-12-14T12:29:17;98356.25;;;11.11;87.44
27840;BME280;15207;42.182;24.308;2023-12-14T12:31:43;98359.94;;;11.10;87.09
27840;BME280;15207;42.182;24.308;2023-12-14T12:34:11;98354.56;;;11.10;88.26
27840;BME280;15207;42.182;24.308;2023-12-14T12:36:36;98350.03;;;11.10;88.57
27840;BME280;15207;42.182;24.308;2023-12-14T12:39:02;98356.13;;;11.13;87.60
27840;BME280;15207;42.182;24.308;2023-12-14T12:41:28;98354.66;;;11.18;86.45
27840;BME280;15207;42.182;24.308;2023-12-14T12:43:54;98362.41;;;11.21;86.79
27840;BME280;15207;42.182;24.308;2023-12-14T12:46:19;98355.91;;;11.24;86.76
27840;BME280;15207;42.182;24.308;2023-12-14T12:48:45;98357.06;;;11.11;87.00